Time;durP1;ratioP1;P1;durP2;ratioP2;P2;SDS_P1;SDS_P2;PMS_P1;PMS_P2;Temp;Humidity;BMP_temperature;BMP_pressure;BME280_temperature;BME280_humidity;BME280_pressure;Samples;Min_cycle;Max_cycle;Signal;HPM_P1;HPM_P2
2022/12/22 03:27:44;;;;;;;9.85;8.82;;;;;;;19.49;47.76;101352.19;4788114;30;20051;-49
2022/12/22 03:30:12;;;;;;;10.95;9.32;;;;;;;19.49;47.85;101357.56;4787575;30;20058;-50
2022/12/22 03:32:39;;;;;;;11.80;9.30;;;;;;;19.49;47.81;101356.72;4789533;29;20059;-49
2022/12/22 03:35:07;;;;;;;10.25;8.52;;;;;;;19.48;47.80;101355.81;4790808;30;20498;-50
2022/12/22 03:37:34;;;;;;;10.48;9.00;;;;;;;19.49;47.77;101346.81;4790959;30;20055;-49
2022/12/22 03:40:02;;;;;;;8.90;8.02;;;;;;;19.49;47.86;101351.34;4790843;30;20063;-49
2022/12/22 03:48:00;;;;;;;9.80;8.00;;;;;;;19.48;47.81;101328.97;4790678;30;20406;-49
2022/12/22 03:50:28;;;;;;;9.82;8.82;;;;;;;19.48;47.77;101328.13;4790970;30;20055;-53
2022/12/22 03:52:55;;;;;;;9.35;8.35;;;;;;;19.48;47.97;101318.22;4790728;30;20055;-51
2022/12/22 03:55:22;;;;;;;9.15;8.23;;;;;;;19.46;47.81;101320.19;4790494;30;20136;-49
2022/12/22 03:57:49;;;;;;;9.88;8.88;;;;;;;19.47;47.85;101315.69;4790580;30;20062;-53
2022/12/22 04:00:17;;;;;;;9.55;8.43;;;;;;;19.47;47.93;101321.03;4790717;30;20051;-51
2022/12/22 04:02:45;;;;;;;11.65;8.95;;;;;;;19.46;47.86;101303.22;4789470;30;20047;-52
2022/12/22 04:05:12;;;;;;;10.07;8.50;;;;;;;19.47;47.82;101294.19;4789858;30;20055;-48
2022/12/22 04:07:40;;;;;;;8.45;7.55;;;;;;;19.45;47.74;101288.09;4790563;30;20055;-51
2022/12/22 04:12:53;;;;;;;8.70;7.75;;;;;;;19.46;47.86;101305.91;4790605;30;20525;-51
2022/12/22 04:15:26;;;;;;;9.93;8.68;;;;;;;19.46;47.80;101314.81;4790316;30;20523;-51
2022/12/22 04:17:54;;;;;;;8.55;7.70;;;;;;;19.46;47.96;101322.03;4791056;29;20069;-52
2022/12/22 04:20:25;;;;;;;9.48;8.48;;;;;;;19.46;47.89;101306.78;4790200;30;20043;-51
2022/12/22 04:22:53;;;;;;;10.02;8.77;;;;;;;19.44;48.02;101326.66;4803843;29;20055;-51
2022/12/22 04:25:22;;;;;;;8.88;8.07;;;;;;;19.45;48.16;101328.38;4789815;30;20055;-50
2022/12/22 04:27:49;;;;;;;9.73;8.45;;;;;;;19.44;48.10;101330.19;4790032;30;20133;-48
2022/12/22 04:30:17;;;;;;;9.05;8.15;;;;;;;19.45;48.20;101339.13;4790245;30;20051;-51
2022/12/22 04:32:44;;;;;;;9.05;7.45;;;;;;;19.44;47.89;101327.50;4790030;30;20051;-48
2022/12/22 04:35:12;;;;;;;9.23;8.30;;;;;;;19.44;48.27;101316.75;4789843;30;20060;-48
2022/12/22 04:37:39;;;;;;;10.27;8.65;;;;;;;19.44;48.03;101313.22;4790236;30;20073;-51
2022/12/22 04:40:07;;;;;;;10.70;8.90;;;;;;;19.44;48.14;101308.69;4789861;30;20047;-51
2022/12/22 04:42:34;;;;;;;9.32;8.43;;;;;;;19.44;48.15;101299.78;4789869;29;20398;-49
2022/12/22 04:45:02;;;;;;;10.30;8.80;;;;;;;19.44;48.07;101297.97;4789644;30;20051;-51
2022/12/22 04:47:29;;;;;;;9.35;8.10;;;;;;;19.44;48.05;101284.53;4789751;30;20047;-48
2022/12/22 04:49:56;;;;;;;9.55;8.02;;;;;;;19.45;48.02;101285.41;4788979;30;20054;-49
2022/12/22 04:52:24;;;;;;;9.13;8.23;;;;;;;19.44;48.24;101281.84;4790075;29;20066;-48
2022/12/22 04:54:51;;;;;;;8.88;7.78;;;;;;;19.44;48.22;101286.38;4789527;30;20056;-50
2022/12/22 04:57:20;;;;;;;9.00;8.00;;;;;;;19.44;48.27;101294.44;4789108;30;20063;-48
2022/12/22 04:59:47;;;;;;;11.30;7.97;;;;;;;19.44;48.28;101302.47;4789335;30;20056;-48
2022/12/22 05:02:15;;;;;;;10.40;8.10;;;;;;;19.43;48.18;101309.69;4789177;30;20058;-50
2022/12/22 05:04:42;;;;;;;10.10;8.65;;;;;;;19.44;48.23;101307.84;4787881;30;20074;-52
2022/12/22 05:07:09;;;;;;;8.70;7.80;;;;;;;19.43;48.23;101298.94;4789284;30;20051;-50
2022/12/22 05:09:37;;;;;;;9.45;8.45;;;;;;;19.43;48.22;101312.38;4789221;30;20395;-49
2022/12/22 05:12:53;;;;;;;8.25;7.40;;;;;;;19.43;48.34;101320.44;4788907;30;20055;-52
2022/12/22 05:14:52;;;;;;;8.63;7.05;;;;;;;19.43;48.32;101319.56;4788834;30;20054;-50
2022/12/22 05:17:19;;;;;;;8.93;7.43;;;;;;;19.43;48.23;101320.44;4789480;30;20051;-54
2022/12/22 05:19:47;;;;;;;9.23;7.93;;;;;;;19.43;48.24;101327.63;4789060;30;20056;-56
2022/12/22 05:22:17;;;;;;;9.00;8.13;;;;;;;19.43;48.23;101314.22;4789151;30;20051;-54
2022/12/22 05:24:45;;;;;;;9.57;7.90;;;;;;;19.41;48.28;101317.03;4789314;30;20055;-56
2022/12/22 05:27:12;;;;;;;9.57;8.40;;;;;;;19.42;48.13;101316.03;4789180;30;20062;-55
2022/12/22 05:29:39;;;;;;;10.48;8.30;;;;;;;19.42;48.24;101318.72;4789107;30;20059;-55
2022/12/22 05:32:07;;;;;;;7.90;7.07;;;;;;;19.42;48.41;101305.31;4789372;30;20055;-56
2022/12/22 05:34:34;;;;;;;8.85;7.57;;;;;;;19.42;48.38;101296.41;4788947;30;20051;-55
2022/12/22 05:37:01;;;;;;;10.50;7.93;;;;;;;19.42;48.37;101285.66;4788835;30;20055;-54
2022/12/22 05:39:28;;;;;;;9.75;8.25;;;;;;;19.41;48.17;101295.53;4789154;30;20058;-55
2022/12/22 05:41:56;;;;;;;9.85;7.70;;;;;;;19.41;48.39;101290.19;4788896;30;20426;-55
2022/12/22 05:44:23;;;;;;;8.38;7.47;;;;;;;19.41;48.21;101292.88;4788800;30;20051;-55
2022/12/22 05:46:51;;;;;;;8.75;7.65;;;;;;;19.41;48.16;101292.88;4789079;30;20051;-55
2022/12/22 05:49:19;;;;;;;9.07;8.07;;;;;;;19.41;48.00;101290.19;4788788;30;20051;-56
2022/12/22 05:51:46;;;;;;;8.55;7.20;;;;;;;19.41;48.33;101295.53;4788571;30;20098;-56
2022/12/22 05:54:14;;;;;;;8.95;7.25;;;;;;;19.40;48.24;101301.88;4788202;29;20051;-55
2022/12/22 05:56:41;;;;;;;7.80;7.00;;;;;;;19.40;48.29;101309.91;4788502;30;20063;-56
2022/12/22 05:59:09;;;;;;;9.85;7.70;;;;;;;19.40;48.31;101320.66;4788324;30;20398;-54
2022/12/22 06:01:37;;;;;;;10.07;7.72;;;;;;;19.40;48.09;101319.81;4788918;30;20062;-55
2022/12/22 06:04:04;;;;;;;8.88;7.43;;;;;;;19.39;48.21;101336.91;4787727;30;20055;-51
2022/12/22 06:06:31;;;;;;;10.10;7.40;;;;;;;19.39;48.19;101344.97;4787017;30;20058;-50
2022/12/22 06:08:59;;;;;;;10.50;8.05;;;;;;;19.40;48.25;101349.34;4788827;30;20055;-51
2022/12/22 06:11:26;;;;;;;9.95;7.78;;;;;;;19.38;48.43;101344.09;4788303;30;20039;-51
2022/12/22 06:13:53;;;;;;;7.85;7.05;;;;;;;19.39;48.21;101335.06;4788095;30;20122;-50
2022/12/22 06:16:22;;;;;;;10.30;7.57;;;;;;;19.38;48.19;101340.56;4788710;30;20051;-52
2022/12/22 06:18:49;;;;;;;8.88;7.25;;;;;;;19.39;48.20;101339.59;4788375;30;20047;-50
2022/12/22 06:21:16;;;;;;;8.40;7.57;;;;;;;19.39;48.18;101328.84;4788349;30;20055;-54
2022/12/22 06:23:43;;;;;;;8.85;7.95;;;;;;;19.39;48.09;101328.84;4788247;30;20055;-53
2022/12/22 06:26:11;;;;;;;8.52;7.65;;;;;;;19.39;48.11;101326.16;4788547;30;20414;-50
2022/12/22 06:28:38;;;;;;;9.23;7.30;;;;;;;19.39;48.08;101326.16;4788110;30;20055;-50
2022/12/22 06:31:05;;;;;;;7.43;6.72;;;;;;;19.39;48.19;101299.31;4788513;30;20527;-52
2022/12/22 06:33:33;;;;;;;9.68;8.57;;;;;;;19.39;48.19;101288.56;4788087;30;20051;-50
2022/12/22 06:36:04;;;;;;;8.15;7.32;;;;;;;19.38;48.17;101284.19;4787987;30;20055;-50
2022/12/22 06:38:32;;;;;;;9.40;7.78;;;;;;;19.37;48.18;101291.41;4788185;30;20742;-51
2022/12/22 06:41:00;;;;;;;9.80;8.02;;;;;;;19.37;48.07;101287.84;4788288;30;20050;-50
2022/12/22 06:43:27;;;;;;;9.70;8.00;;;;;;;19.37;48.02;101304.81;4788025;30;20055;-49
2022/12/22 06:45:55;;;;;;;9.40;7.13;;;;;;;19.37;48.18;101304.81;4787996;30;20058;-51
2022/12/22 06:48:23;;;;;;;9.70;8.15;;;;;;;19.38;48.21;101292.25;4788480;30;20059;-49
2022/12/22 06:50:50;;;;;;;7.88;7.10;;;;;;;19.36;48.41;101304.91;4788039;30;20051;-51
2022/12/22 06:53:17;;;;;;;8.95;7.82;;;;;;;19.37;48.09;101309.34;4788521;30;20498;-51
2022/12/22 06:55:45;;;;;;;7.97;7.18;;;;;;;19.37;48.31;101309.34;4787771;30;20067;-50
2022/12/22 06:58:12;;;;;;;9.52;8.52;;;;;;;19.36;48.23;101303.09;4788190;30;20070;-51
2022/12/22 07:00:39;;;;;;;12.25;7.65;;;;;;;19.37;48.19;101320.06;4787982;30;20039;-50
2022/12/22 07:03:07;;;;;;;10.30;7.70;;;;;;;19.36;48.34;101318.34;4788039;30;20058;-50
2022/12/22 07:05:34;;;;;;;8.60;7.65;;;;;;;19.36;48.25;101303.09;4787810;29;20043;-52
2022/12/22 07:08:02;;;;;;;7.78;6.97;;;;;;;19.37;48.31;101302.13;4789631;29;20055;-53
2022/12/22 07:13:22;;;;;;;10.60;8.30;;;;;;;19.36;48.29;101308.44;4791400;30;20404;-54
2022/12/22 07:15:51;;;;;;;7.75;6.95;;;;;;;19.35;48.30;101287.97;4791143;30;20051;-50
2022/12/22 07:18:29;;;;;;;9.30;8.30;;;;;;;19.35;48.37;101287.97;4790964;29;20055;-50
2022/12/22 07:20:56;;;;;;;9.75;8.27;;;;;;;19.35;48.32;101284.44;4790979;30;20054;-51
2022/12/22 07:23:25;;;;;;;10.25;7.45;;;;;;;19.35;48.33;101281.75;4792085;29;20067;-51
2022/12/22 07:25:52;;;;;;;15.95;9.63;;;;;;;19.35;48.28;101281.75;4789707;30;20064;-51
2022/12/22 07:28:20;;;;;;;11.18;9.38;;;;;;;19.35;48.31;101282.59;4791678;29;20051;-50
2022/12/22 07:30:49;;;;;;;11.40;8.77;;;;;;;19.36;48.38;101283.44;4791366;30;20498;-52
2022/12/22 07:33:17;;;;;;;12.25;8.70;;;;;;;19.36;48.50;101276.25;4790966;30;20495;-56
2022/12/22 07:35:44;;;;;;;11.07;8.60;;;;;;;19.37;48.75;101283.34;4790794;30;20051;-54
2022/12/22 07:38:12;;;;;;;11.10;8.25;;;;;;;19.39;48.98;101288.56;4791155;30;20055;-53
2022/12/22 07:40:39;;;;;;;11.60;8.23;;;;;;;19.39;48.92;101285.91;4790632;29;20067;-53
2022/12/22 07:43:09;;;;;;;10.13;8.57;;;;;;;19.39;48.73;101292.13;4790744;30;20047;-52
2022/12/22 07:45:37;;;;;;;16.33;11.90;;;;;;;19.38;47.75;101300.28;4789720;30;20058;-54
2022/12/22 07:50:23;;;;;;;16.90;13.00;;;;;;;19.33;47.43;101315.91;4790588;30;20059;-51
2022/12/22 07:50:52;;;;;;;12.75;10.23;;;;;;;19.33;48.50;101332.03;4791112;29;20051;-51
2022/12/22 07:53:20;;;;;;;15.13;11.88;;;;;;;19.33;48.44;101335.56;4790046;30;20058;-56
2022/12/22 07:55:47;;;;;;;17.85;14.73;;;;;;;19.32;47.53;101330.28;4789027;29;20063;-48
2022/12/22 07:58:14;;;;;;;21.33;18.23;;;;;;;19.29;46.73;101323.34;4790179;30;20055;-56
2022/12/22 08:00:41;;;;;;;23.88;17.92;;;;;;;19.27;46.37;101325.28;4790370;30;20166;-55
2022/12/22 08:03:09;;;;;;;25.35;17.88;;;;;;;19.24;46.51;101334.47;4789855;30;20490;-50
2022/12/22 08:05:37;;;;;;;23.52;19.17;;;;;;;19.24;45.97;101336.25;4790071;30;20047;-51
2022/12/22 08:08:04;;;;;;;21.15;17.83;;;;;;;19.22;45.95;101328.34;4788787;30;20051;-51
2022/12/22 08:10:32;;;;;;;24.85;19.85;;;;;;;19.21;45.66;101334.69;4790728;30;20380;-48
2022/12/22 08:12:59;;;;;;;22.33;19.42;;;;;;;19.22;45.54;101348.97;4789980;30;20058;-48
2022/12/22 08:15:26;;;;;;;24.02;20.35;;;;;;;19.22;45.47;101349.81;4790130;30;20051;-51
2022/12/22 08:17:55;;;;;;;23.05;19.25;;;;;;;19.22;45.38;101354.31;4789377;29;20048;-57
2022/12/22 08:20:22;;;;;;;23.75;18.08;;;;;;;19.22;46.17;101365.06;4789197;30;20055;-55
2022/12/22 08:22:49;;;;;;;28.35;20.48;;;;;;;19.22;45.22;101391.91;4773334;29;20059;-51
2022/12/22 08:25:17;;;;;;;23.83;20.13;;;;;;;19.22;45.06;101387.38;4771990;30;20056;-54
2022/12/22 08:27:50;;;;;;;23.85;19.48;;;;;;;19.22;45.39;101371.28;4773231;29;20073;-59
2022/12/22 08:30:17;;;;;;;;;;;;;;;19.22;45.36;101365.91;4772611;30;20380;-55
2022/12/22 08:32:47;;;;;;;22.65;19.90;;;;;;;19.21;45.28;101368.72;4772031;30;19925;-50
2022/12/22 08:35:15;;;;;;;24.33;20.65;;;;;;;19.20;45.12;101372.34;4772171;30;20408;-50
2022/12/22 08:37:45;;;;;;;24.83;21.75;;;;;;;19.19;44.84;101382.25;4771821;30;20407;-55
2022/12/22 08:40:21;;;;;;;22.85;19.75;;;;;;;19.18;45.19;101390.44;4772196;30;20051;-54
2022/12/22 08:42:53;;;;;;;25.52;20.98;;;;;;;19.16;45.32;101379.81;4772270;30;20058;-49
2022/12/22 08:45:20;;;;;;;24.02;19.92;;;;;;;19.17;45.29;101373.47;4771860;30;20052;-47
2022/12/22 08:47:47;;;;;;;25.65;21.23;;;;;;;19.16;45.09;101369.09;4771564;30;20074;-54
2022/12/22 08:50:15;;;;;;;21.60;18.92;;;;;;;19.17;45.47;101370.78;4772044;30;20060;-56
2022/12/22 08:52:42;;;;;;;22.90;16.90;;;;;;;19.21;46.36;101363.38;4771903;30;20051;-55
2022/12/22 08:55:10;;;;;;;20.60;15.95;;;;;;;19.26;46.45;101361.16;4771212;30;20514;-47
2022/12/22 08:57:37;;;;;;;16.75;14.82;;;;;;;19.30;46.43;101364.47;4771647;30;20067;-50
2022/12/22 09:00:07;;;;;;;16.55;13.65;;;;;;;19.34;46.57;101356.06;4771539;30;20058;-54
2022/12/22 09:02:35;;;;;;;17.05;14.13;;;;;;;19.40;46.68;101354.72;4770279;30;20052;-56
2022/12/22 09:05:03;;;;;;;16.38;12.75;;;;;;;19.42;46.74;101350.09;4771671;30;20056;-55
2022/12/22 09:07:30;;;;;;;15.48;11.52;;;;;;;19.45;46.88;101366.81;4770918;30;20055;-54
2022/12/22 09:09:57;;;;;;;14.38;11.38;;;;;;;19.47;46.80;101372.06;4770271;30;20066;-51
2022/12/22 09:12:25;;;;;;;16.73;12.15;;;;;;;19.49;46.58;101373.66;4771382;30;20051;-55
2022/12/22 09:14:52;;;;;;;16.88;11.02;;;;;;;19.51;46.76;101360.97;4771188;30;20063;-50
2022/12/22 09:17:19;;;;;;;15.55;12.07;;;;;;;19.53;46.55;101352.81;4771256;30;20052;-54
2022/12/22 09:19:46;;;;;;;15.07;11.13;;;;;;;19.55;46.86;101356.22;4771380;30;20063;-51
2022/12/22 09:22:13;;;;;;;14.07;11.15;;;;;;;19.57;46.65;101348.03;4770689;30;20048;-49
2022/12/22 09:24:41;;;;;;;14.23;10.57;;;;;;;19.57;46.46;101343.53;4770819;30;20492;-49
2022/12/22 09:27:08;;;;;;;12.38;11.02;;;;;;;19.58;46.59;101334.50;4770821;30;20063;-57
2022/12/22 09:29:36;;;;;;;11.27;10.07;;;;;;;19.59;46.72;101332.66;4769819;30;20430;-50
2022/12/22 09:32:03;;;;;;;11.38;9.02;;;;;;;19.59;46.43;101333.50;4771344;30;20502;-49
2022/12/22 09:34:31;;;;;;;11.68;9.73;;;;;;;19.60;46.72;101321.78;4771173;30;20372;-49
2022/12/22 09:36:58;;;;;;;12.35;9.68;;;;;;;19.60;46.36;101318.25;4769315;30;20063;-48
2022/12/22 09:39:26;;;;;;;11.65;10.38;;;;;;;19.59;46.50;101314.72;4770961;30;20132;-50
2022/12/22 09:41:57;;;;;;;11.23;9.65;;;;;;;19.61;46.38;101325.34;4770865;30;20074;-50
2022/12/22 09:44:29;;;;;;;15.32;9.68;;;;;;;19.60;46.60;101320.94;4770095;30;20059;-51
2022/12/22 09:47:00;;;;;;;10.68;8.88;;;;;;;19.60;46.81;101310.19;4770732;30;20072;-50
2022/12/22 09:49:28;;;;;;;14.88;9.10;;;;;;;19.59;46.45;101301.28;4770580;30;20051;-49
2022/12/22 09:51:59;;;;;;;10.60;8.90;;;;;;;19.60;46.89;101302.97;4770707;30;20055;-49
2022/12/22 09:54:28;;;;;;;10.27;8.48;;;;;;;19.61;46.61;101301.16;4784679;30;20051;-52
2022/12/22 09:56:56;;;;;;;9.98;7.68;;;;;;;19.62;46.59;101313.66;4770348;30;20055;-54
2022/12/22 09:59:28;;;;;;;10.95;8.02;;;;;;;19.62;46.60;101311.81;4770543;30;20495;-49
2022/12/22 10:02:14;;;;;;;10.55;9.05;;;;;;;19.63;46.87;101302.78;4770544;30;20060;-54
2022/12/22 10:04:48;;;;;;;11.70;8.20;;;;;;;19.64;46.86;101311.69;4770128;30;20075;-51
2022/12/22 10:07:18;;;;;;;11.98;8.07;;;;;;;19.64;46.85;101307.16;4770591;30;20052;-56
2022/12/22 10:09:45;;;;;;;10.70;7.78;;;;;;;19.64;47.09;101309.00;4769180;30;20078;-49
2022/12/22 10:12:23;;;;;;;9.40;7.90;;;;;;;19.65;46.77;101298.16;4770786;30;20063;-57
2022/12/22 10:14:52;;;;;;;9.48;7.78;;;;;;;19.64;47.04;101290.19;4770470;30;20051;-50
2022/12/22 10:17:30;;;;;;;10.90;7.55;;;;;;;19.64;46.89;101285.66;4770449;30;20136;-54
2022/12/22 10:20:24;;;;;;;9.63;7.78;;;;;;;19.65;47.04;101278.50;4770608;30;20083;-53
2022/12/22 10:22:58;;;;;;;10.15;7.82;;;;;;;19.66;47.00;101277.50;4770670;30;20075;-56
2022/12/22 10:25:28;;;;;;;12.60;7.88;;;;;;;19.65;46.98;101276.66;4770373;30;20400;-55
2022/12/22 10:28:20;;;;;;;9.52;7.57;;;;;;;19.65;46.97;101263.22;4770427;30;20043;-49
2022/12/22 10:30:48;;;;;;;8.88;7.30;;;;;;;19.66;47.20;101258.72;4771181;30;20475;-50
2022/12/22 10:33:17;;;;;;;9.65;7.50;;;;;;;19.66;47.27;101267.63;4783520;30;20669;-53
2022/12/22 10:35:48;;;;;;;10.40;7.07;;;;;;;19.65;46.94;101260.53;4770010;30;20051;-55
2022/12/22 10:38:32;;;;;;;8.20;7.35;;;;;;;19.66;46.81;101270.31;4770507;30;20071;-53
2022/12/22 10:41:02;;;;;;;9.45;7.85;;;;;;;19.66;46.96;101259.56;4769486;30;20056;-49
2022/12/22 10:43:39;;;;;;;9.38;7.13;;;;;;;19.67;47.12;101257.72;4770039;30;20060;-53
2022/12/22 10:46:06;;;;;;;10.02;8.20;;;;;;;19.68;46.83;101252.22;4770375;30;20063;-53
2022/12/22 10:48:36;;;;;;;8.68;7.00;;;;;;;19.68;46.95;101240.63;4768915;30;20060;-49
2022/12/22 10:51:07;;;;;;;9.23;7.57;;;;;;;19.67;46.76;101239.78;4769988;30;20399;-56
2022/12/22 10:53:51;;;;;;;10.90;7.60;;;;;;;19.68;46.64;101238.78;4770055;30;20055;-52
2022/12/22 10:56:26;;;;;;;10.98;7.13;;;;;;;19.68;46.72;101229.88;4770092;30;20072;-48
2022/12/22 10:59:17;;;;;;;10.38;7.30;;;;;;;19.68;46.43;101246.84;4769933;30;20063;-51
2022/12/22 11:01:45;;;;;;;8.45;7.22;;;;;;;19.69;46.85;101237.84;4769586;30;20078;-55
2022/12/22 11:04:26;;;;;;;10.13;7.45;;;;;;;19.69;46.80;101242.34;4770100;30;20058;-52
2022/12/22 11:06:57;;;;;;;9.25;6.93;;;;;;;19.69;46.62;101231.59;4769882;30;20056;-51
2022/12/22 11:09:25;;;;;;;9.57;6.57;;;;;;;19.69;47.04;101218.19;4769666;30;20048;-54
2022/12/22 11:12:17;;;;;;;10.65;7.20;;;;;;;19.67;46.65;101204.84;4768928;30;20051;-51
2022/12/22 11:15:22;;;;;;;7.70;6.85;;;;;;;19.68;46.50;101203.88;4769891;30;20388;-53
2022/12/22 11:18:04;;;;;;;7.93;6.90;;;;;;;19.69;46.73;101210.97;4769723;30;20060;-48
2022/12/22 11:20:36;;;;;;;8.75;7.78;;;;;;;19.69;46.39;101226.25;4770090;30;20392;-51
2022/12/22 11:23:28;;;;;;;9.85;8.00;;;;;;;19.69;46.49;101220.88;4769230;30;20384;-49
2022/12/22 11:25:58;;;;;;;9.43;7.05;;;;;;;19.69;46.51;101219.03;4768855;30;20060;-49
2022/12/22 11:28:28;;;;;;;10.55;7.50;;;;;;;19.69;46.57;101229.78;4751978;30;20052;-49
2022/12/22 11:31:01;;;;;;;9.20;7.20;;;;;;;19.69;46.73;101235.16;4751771;30;20400;-49
2022/12/22 11:33:58;;;;;;;7.93;6.72;;;;;;;19.70;46.70;101226.09;4751863;30;20063;-50
2022/12/22 11:37:03;;;;;;;8.63;7.00;;;;;;;19.69;46.61;101227.09;4763105;30;20423;-50
2022/12/22 11:39:51;;;;;;;11.32;6.82;;;;;;;19.70;46.78;101236.00;4764626;30;20063;-48
2022/12/22 11:42:43;;;;;;;9.90;7.38;;;;;;;19.70;46.72;101233.31;4769403;30;20052;-50
2022/12/22 11:45:32;;;;;;;8.20;6.57;;;;;;;19.70;46.75;101227.94;4769111;30;20578;-55
2022/12/22 11:48:34;;;;;;;8.77;6.18;;;;;;;19.69;46.72;101245.88;4769902;30;20464;-50
2022/12/22 11:51:40;;;;;;;7.63;6.55;;;;;;;19.69;46.72;101240.53;4768641;30;20059;-53
2022/12/22 11:54:31;;;;;;;8.70;6.45;;;;;;;19.70;46.67;101233.31;4771044;30;20399;-51
2022/12/22 11:57:16;;;;;;;9.00;5.97;;;;;;;19.70;46.62;101241.38;4772372;30;20067;-54
2022/12/22 11:59:58;;;;;;;8.50;6.05;;;;;;;19.69;46.65;101237.84;4772518;30;20407;-46
2022/12/22 12:02:47;;;;;;;10.27;6.68;;;;;;;19.70;46.71;101250.28;4772806;30;20054;-52
2022/12/22 12:05:31;;;;;;;9.07;6.53;;;;;;;19.70;46.81;101249.44;4772737;30;20047;-52
2022/12/22 12:08:25;;;;;;;8.32;6.25;;;;;;;19.70;46.79;101244.91;4772181;30;20051;-53
2022/12/22 12:11:06;;;;;;;8.55;5.63;;;;;;;19.69;46.61;101237.84;4771219;30;20062;-53
2022/12/22 12:13:52;;;;;;;8.05;5.68;;;;;;;19.72;46.47;101228.66;4771914;30;20059;-55
2022/12/22 12:16:52;;;;;;;9.68;6.60;;;;;;;19.71;45.93;101224.25;4772638;30;20056;-52
2022/12/22 12:19:53;;;;;;;8.05;6.22;;;;;;;19.71;46.42;101226.94;4772122;30;20051;-58
2022/12/22 12:22:36;;;;;;;9.15;6.63;;;;;;;19.72;46.48;101223.28;4772240;30;20440;-57
2022/12/22 12:25:22;;;;;;;6.60;5.68;;;;;;;19.73;46.76;101216.94;4772151;30;20052;-56
2022/12/22 12:28:22;;;;;;;7.72;4.97;;;;;;;19.73;46.97;101214.25;4772806;30;20476;-50
2022/12/22 12:30:56;;;;;;;7.10;5.55;;;;;;;19.73;47.22;101214.25;4772159;30;20054;-54
2022/12/22 12:33:42;;;;;;;6.75;5.13;;;;;;;19.73;47.11;101214.25;4772013;30;20048;-54
2022/12/22 12:36:40;;;;;;;7.85;5.22;;;;;;;19.73;47.27;101220.47;4762565;30;20059;-58
2022/12/22 12:39:07;;;;;;;9.85;5.15;;;;;;;19.72;47.39;101212.53;4771989;30;20047;-57
2022/12/22 12:41:50;;;;;;;8.07;5.00;;;;;;;19.69;47.39;101210.97;4770635;30;20063;-58
2022/12/22 12:44:21;;;;;;;6.68;5.32;;;;;;;19.68;47.44;101206.56;4771675;30;20384;-58
2022/12/22 12:46:58;;;;;;;7.57;5.07;;;;;;;19.68;47.42;101211.91;4771760;30;20060;-58
2022/12/22 12:49:53;;;;;;;7.43;5.38;;;;;;;19.68;47.39;101214.63;4771934;30;20048;-60
2022/12/22 12:52:38;;;;;;;8.18;4.85;;;;;;;19.69;47.46;101215.50;4771545;30;20062;-57
2022/12/22 12:55:24;;;;;;;7.78;4.75;;;;;;;19.67;47.52;101218.28;4771466;30;20400;-58
2022/12/22 12:58:00;;;;;;;7.00;5.22;;;;;;;19.68;47.69;101216.44;4771307;30;20055;-58
2022/12/22 13:00:31;;;;;;;9.45;4.50;;;;;;;19.68;47.76;101216.44;4771114;30;20055;-57
2022/12/22 13:03:09;;;;;;;6.95;5.00;;;;;;;19.66;48.01;101195.09;4771478;30;20074;-58
2022/12/22 13:05:59;;;;;;;5.75;4.50;;;;;;;19.66;47.92;101184.34;4771318;30;20067;-57
2022/12/22 13:08:28;;;;;;;10.45;5.47;;;;;;;19.68;48.38;101189.59;4770597;30;20066;-58
2022/12/22 13:10:55;;;;;;;11.68;5.43;;;;;;;19.68;48.41;101177.00;4770941;30;20082;-51
2022/12/22 13:13:25;;;;;;;7.45;5.05;;;;;;;19.71;48.54;101167.84;4769615;30;20392;-49
2022/12/22 13:15:58;;;;;;;6.68;4.97;;;;;;;19.71;48.48;101157.09;4771381;30;20056;-56
2022/12/22 13:18:28;;;;;;;8.52;5.00;;;;;;;19.73;48.51;101165.91;4770835;30;20051;-54
2022/12/22 13:20:58;;;;;;;7.63;4.50;;;;;;;19.74;48.42;101164.91;4771034;30;20059;-57
2022/12/22 13:23:54;;;;;;;7.65;5.38;;;;;;;19.75;48.44;101162.09;4770404;30;20056;-57
2022/12/22 13:26:44;;;;;;;7.80;5.32;;;;;;;19.77;48.40;101183.47;4771083;30;20051;-50
2022/12/22 13:29:15;;;;;;;7.15;5.43;;;;;;;19.76;48.52;101181.75;4770197;30;20063;-57
2022/12/22 13:32:00;;;;;;;9.63;5.25;;;;;;;19.78;48.07;101168.22;4770795;30;20426;-58
2022/12/22 13:34:40;;;;;;;8.45;5.13;;;;;;;19.77;48.04;101164.69;4770895;30;20051;-56
2022/12/22 13:37:28;;;;;;;6.82;5.03;;;;;;;19.78;48.27;101169.06;4752721;30;20060;-57
2022/12/22 13:40:07;;;;;;;8.32;5.50;;;;;;;19.79;48.31;101157.31;4752973;30;20063;-57
2022/12/22 13:42:44;;;;;;;8.90;5.28;;;;;;;19.80;48.31;101152.81;4753105;30;20060;-59
2022/12/22 13:45:26;;;;;;;5.13;4.55;;;;;;;19.79;48.05;101151.97;4752791;30;20431;-58
2022/12/22 13:47:54;;;;;;;6.38;4.40;;;;;;;19.79;48.20;101146.59;4752759;30;20056;-58
2022/12/22 13:50:26;;;;;;;6.03;4.63;;;;;;;19.79;48.22;101143.91;4752760;30;20555;-56
2022/12/22 13:52:56;;;;;;;7.50;4.75;;;;;;;19.80;47.87;101139.38;4752746;30;20056;-58
2022/12/22 13:55:29;;;;;;;6.70;4.40;;;;;;;19.80;48.23;101124.09;4769009;30;20059;-56
2022/12/22 13:58:08;;;;;;;7.35;5.47;;;;;;;19.80;48.07;101115.19;4784100;29;20064;-55
2022/12/22 14:00:35;;;;;;;6.60;5.28;;;;;;;19.81;48.17;101117.78;4770477;30;20380;-48
2022/12/22 14:03:15;;;;;;;7.50;5.07;;;;;;;19.81;48.23;101116.88;4770227;30;20482;-56
2022/12/22 14:06:24;;;;;;;6.03;4.60;;;;;;;19.81;47.96;101115.09;4770844;30;20060;-55
2022/12/22 14:08:52;;;;;;;8.13;5.07;;;;;;;19.81;48.14;101117.78;4770842;30;20052;-56
2022/12/22 14:11:19;;;;;;;9.40;4.80;;;;;;;19.81;48.18;101123.16;4769974;30;20063;-51
2022/12/22 14:13:47;;;;;;;8.35;4.90;;;;;;;19.81;47.83;101116.88;4769124;29;20503;-58
2022/12/22 14:16:15;;;;;;;7.32;5.55;;;;;;;19.81;47.98;101119.56;4769381;30;20063;-53
2022/12/22 14:18:42;;;;;;;6.97;5.05;;;;;;;19.80;48.17;101116.03;4769915;30;20419;-58
2022/12/22 14:21:11;;;;;;;7.63;4.50;;;;;;;19.81;47.71;101111.53;4769259;30;20506;-51
2022/12/22 14:23:41;;;;;;;8.07;4.75;;;;;;;19.81;47.99;101098.09;4770014;30;20511;-49
2022/12/22 14:26:16;;;;;;;6.28;4.20;;;;;;;19.81;48.10;101101.66;4770014;30;20056;-49
2022/12/22 14:28:52;;;;;;;6.32;4.93;;;;;;;19.83;47.96;101106.88;4770660;30;20048;-57
2022/12/22 14:31:19;;;;;;;6.45;4.70;;;;;;;19.82;47.88;101110.56;4770338;30;20060;-57
2022/12/22 14:33:54;;;;;;;8.02;4.75;;;;;;;19.81;47.84;101107.03;4770022;30;20055;-57
2022/12/22 14:36:26;;;;;;;6.20;4.38;;;;;;;19.82;47.95;101097.13;4770213;30;20415;-57
2022/12/22 14:38:58;;;;;;;6.47;4.30;;;;;;;19.82;48.04;101099.81;4769609;30;20055;-53
2022/12/22 14:41:49;;;;;;;6.13;4.50;;;;;;;19.81;47.97;101088.22;4770308;30;20051;-54
2022/12/22 14:44:22;;;;;;;5.85;4.43;;;;;;;19.83;47.80;101096.13;4769889;30;20416;-55
2022/12/22 14:47:11;;;;;;;7.95;5.07;;;;;;;19.83;47.84;101090.78;4770432;30;20067;-53
2022/12/22 14:49:48;;;;;;;8.65;4.80;;;;;;;19.83;48.25;101098.81;4770207;30;20460;-48
2022/12/22 14:52:39;;;;;;;6.75;5.15;;;;;;;19.82;47.88;101103.34;4770019;30;20515;-52
2022/12/22 14:55:21;;;;;;;7.57;5.18;;;;;;;19.82;47.94;101100.66;4769764;30;20059;-54
2022/12/22 14:57:55;;;;;;;7.72;4.78;;;;;;;19.84;48.05;101104.06;4769921;30;20503;-55
2022/12/22 15:00:23;;;;;;;6.38;4.82;;;;;;;19.84;48.09;101103.22;4769800;30;20060;-57
2022/12/22 15:02:57;;;;;;;5.60;4.47;;;;;;;19.85;48.05;101099.53;4783045;30;20055;-48
2022/12/22 15:05:34;;;;;;;6.40;4.78;;;;;;;19.85;47.85;101096.84;4769655;30;20052;-52
2022/12/22 15:08:04;;;;;;;7.03;4.85;;;;;;;19.85;47.85;101089.66;4770545;30;20559;-57
2022/12/22 15:10:43;;;;;;;9.10;5.20;;;;;;;19.85;48.03;101094.16;4769629;30;20056;-48
2022/12/22 15:13:21;;;;;;;8.02;5.18;;;;;;;19.86;47.83;101101.25;4769488;30;20472;-56
2022/12/22 15:15:51;;;;;;;7.18;4.68;;;;;;;19.85;47.95;101112.97;4769001;30;20520;-54
2022/12/22 15:18:26;;;;;;;7.72;4.50;;;;;;;19.85;48.04;101116.53;4769687;30;20063;-57
2022/12/22 15:20:54;;;;;;;6.18;5.00;;;;;;;19.85;47.88;101111.16;4769692;30;20063;-53
2022/12/22 15:23:22;;;;;;;9.65;5.97;;;;;;;19.85;47.91;101105.78;4769851;30;20052;-54
2022/12/22 15:25:49;;;;;;;5.03;4.07;;;;;;;19.85;47.81;101103.09;4769470;30;20063;-50